sensor_id;sensor_type;location;lat;lon;timestamp;temperature;humidity
336;DHT22;156;48.738;9.228;2023-04-07T00:00:28;6.30;16.30
336;DHT22;156;48.738;9.228;2023-04-07T00:02:58;6.30;12.60
336;DHT22;156;48.738;9.228;2023-04-07T00:05:26;6.20;11.70
336;DHT22;156;48.738;9.228;2023-04-07T00:07:53;6.20;11.80
336;DHT22;156;48.738;9.228;2023-04-07T00:10:20;6.20;11.80
336;DHT22;156;48.738;9.228;2023-04-07T00:12:49;6.30;10.60
336;DHT22;156;48.738;9.228;2023-04-07T00:15:16;6.20;10.50
336;DHT22;156;48.738;9.228;2023-04-07T00:17:43;6.20;10.90
336;DHT22;156;48.738;9.228;2023-04-07T00:20:11;6.20;13.50
336;DHT22;156;48.738;9.228;2023-04-07T00:22:37;6.20;15.00
336;DHT22;156;48.738;9.228;2023-04-07T00:25:05;6.10;19.80
336;DHT22;156;48.738;9.228;2023-04-07T00:27:32;6.10;19.90
336;DHT22;156;48.738;9.228;2023-04-07T00:30:01;6.10;20.20
336;DHT22;156;48.738;9.228;2023-04-07T00:32:28;6.10;23.70
336;DHT22;156;48.738;9.228;2023-04-07T00:34:55;6.10;21.80
336;DHT22;156;48.738;9.228;2023-04-07T00:37:22;6.10;23.40
336;DHT22;156;48.738;9.228;2023-04-07T00:39:50;6.10;24.30
336;DHT22;156;48.738;9.228;2023-04-07T00:42:17;6.00;27.70
336;DHT22;156;48.738;9.228;2023-04-07T00:44:44;6.00;26.90
336;DHT22;156;48.738;9.228;2023-04-07T00:47:13;6.00;25.90
336;DHT22;156;48.738;9.228;2023-04-07T00:49:41;5.90;27.50
336;DHT22;156;48.738;9.228;2023-04-07T00:52:08;5.90;28.00
336;DHT22;156;48.738;9.228;2023-04-07T00:54:36;6.00;28.80
336;DHT22;156;48.738;9.228;2023-04-07T00:57:03;6.00;31.40
336;DHT22;156;48.738;9.228;2023-04-07T00:59:30;6.00;30.00
336;DHT22;156;48.738;9.228;2023-04-07T01:02:01;6.00;28.70
336;DHT22;156;48.738;9.228;2023-04-07T01:04:32;5.90;28.10
336;DHT22;156;48.738;9.228;2023-04-07T01:07:04;6.00;31.30
336;DHT22;156;48.738;9.228;2023-04-07T01:09:37;6.00;31.20
336;DHT22;156;48.738;9.228;2023-04-07T01:12:11;6.00;32.50
336;DHT22;156;48.738;9.228;2023-04-07T01:14:46;6.00;32.40
336;DHT22;156;48.738;9.228;2023-04-07T01:17:16;6.10;35.30
336;DHT22;156;48.738;9.228;2023-04-07T01:19:55;6.00;35.70
336;DHT22;156;48.738;9.228;2023-04-07T01:22:29;6.00;34.70
336;DHT22;156;48.738;9.228;2023-04-07T01:25:26;5.90;32.50
336;DHT22;156;48.738;9.228;2023-04-07T01:28:09;5.90;31.00
336;DHT22;156;48.738;9.228;2023-04-07T01:30:42;5.90;29.70
336;DHT22;156;48.738;9.228;2023-04-07T01:33:11;6.00;30.70
336;DHT22;156;48.738;9.228;2023-04-07T01:35:40;6.10;27.70
336;DHT22;156;48.738;9.228;2023-04-07T01:38:08;6.10;27.80
336;DHT22;156;48.738;9.228;2023-04-07T01:40:37;6.10;24.10
336;DHT22;156;48.738;9.228;2023-04-07T01:43:05;6.10;21.70
336;DHT22;156;48.738;9.228;2023-04-07T01:45:33;6.10;20.20
336;DHT22;156;48.738;9.228;2023-04-07T01:48:04;6.10;19.50
336;DHT22;156;48.738;9.228;2023-04-07T01:50:32;6.10;19.70
336;DHT22;156;48.738;9.228;2023-04-07T01:52:59;6.10;19.40
336;DHT22;156;48.738;9.228;2023-04-07T01:55:27;6.10;19.90
336;DHT22;156;48.738;9.228;2023-04-07T01:57:55;6.00;19.00
336;DHT22;156;48.738;9.228;2023-04-07T02:00:21;6.10;18.60
336;DHT22;156;48.738;9.228;2023-04-07T02:02:53;6.00;19.20
336;DHT22;156;48.738;9.228;2023-04-07T02:05:22;6.10;16.60
336;DHT22;156;48.738;9.228;2023-04-07T02:08:08;6.10;16.00
336;DHT22;156;48.738;9.228;2023-04-07T02:10:37;6.00;15.50
336;DHT22;156;48.738;9.228;2023-04-07T02:13:06;6.00;15.40
336;DHT22;156;48.738;9.228;2023-04-07T02:15:35;6.10;14.40
336;DHT22;156;48.738;9.228;2023-04-07T02:18:03;6.10;15.80
336;DHT22;156;48.738;9.228;2023-04-07T02:20:33;6.10;15.30
336;DHT22;156;48.738;9.228;2023-04-07T02:23:01;6.10;14.20
336;DHT22;156;48.738;9.228;2023-04-07T02:25:28;6.20;15.10
336;DHT22;156;48.738;9.228;2023-04-07T02:27:57;6.20;12.00
336;DHT22;156;48.738;9.228;2023-04-07T02:30:25;6.10;11.90
336;DHT22;156;48.738;9.228;2023-04-07T02:32:52;6.10;12.50
336;DHT22;156;48.738;9.228;2023-04-07T02:35:19;6.20;12.30
336;DHT22;156;48.738;9.228;2023-04-07T02:37:48;6.20;12.10
336;DHT22;156;48.738;9.228;2023-04-07T02:40:15;6.20;11.00
336;DHT22;156;48.738;9.228;2023-04-07T02:42:43;6.20;10.40
336;DHT22;156;48.738;9.228;2023-04-07T02:45:10;6.20;10.20
336;DHT22;156;48.738;9.228;2023-04-07T02:47:38;6.30;9.00
336;DHT22;156;48.738;9.228;2023-04-07T02:50:06;6.20;11.10
336;DHT22;156;48.738;9.228;2023-04-07T02:52:33;6.30;11.80
336;DHT22;156;48.738;9.228;2023-04-07T02:55:01;6.30;11.80
336;DHT22;156;48.738;9.228;2023-04-07T02:57:28;6.30;7.90
336;DHT22;156;48.738;9.228;2023-04-07T02:59:55;6.20;7.90
336;DHT22;156;48.738;9.228;2023-04-07T03:02:22;6.20;7.90
336;DHT22;156;48.738;9.228;2023-04-07T03:04:50;6.20;9.80
336;DHT22;156;48.738;9.228;2023-04-07T03:07:17;6.30;12.40
336;DHT22;156;48.738;9.228;2023-04-07T03:09:44;6.30;12.00
336;DHT22;156;48.738;9.228;2023-04-07T03:12:13;6.30;12.30
336;DHT22;156;48.738;9.228;2023-04-07T03:14:39;6.30;15.60
336;DHT22;156;48.738;9.228;2023-04-07T03:17:07;6.20;15.60
336;DHT22;156;48.738;9.228;2023-04-07T03:19:34;6.30;16.20
336;DHT22;156;48.738;9.228;2023-04-07T03:22:01;6.30;16.00
336;DHT22;156;48.738;9.228;2023-04-07T03:24:28;6.30;16.10
336;DHT22;156;48.738;9.228;2023-04-07T03:26:55;6.30;16.20
336;DHT22;156;48.738;9.228;2023-04-07T03:29:23;6.30;16.10
336;DHT22;156;48.738;9.228;2023-04-07T03:31:50;6.40;15.80
336;DHT22;156;48.738;9.228;2023-04-07T03:34:17;6.40;12.70
336;DHT22;156;48.738;9.228;2023-04-07T03:36:44;6.40;11.80
336;DHT22;156;48.738;9.228;2023-04-07T03:39:11;6.40;8.80
336;DHT22;156;48.738;9.228;2023-04-07T03:41:37;6.50;9.60
336;DHT22;156;48.738;9.228;2023-04-07T03:44:05;6.50;8.30
336;DHT22;156;48.738;9.228;2023-04-07T03:46:33;6.50;4.80
336;DHT22;156;48.738;9.228;2023-04-07T03:49:00;6.50;3.80
336;DHT22;156;48.738;9.228;2023-04-07T03:51:27;6.50;7.10
336;DHT22;156;48.738;9.228;2023-04-07T03:53:54;6.50;7.00
336;DHT22;156;48.738;9.228;2023-04-07T03:56:20;6.50;6.40
336;DHT22;156;48.738;9.228;2023-04-07T03:58:47;6.50;4.70
336;DHT22;156;48.738;9.228;2023-04-07T04:01:14;6.50;4.20
336;DHT22;156;48.738;9.228;2023-04-07T04:03:43;6.40;1.30
336;DHT22;156;48.738;9.228;2023-04-07T04:06:10;6.40;1.00
336;DHT22;156;48.738;9.228;2023-04-07T04:08:37;6.40;1.00
336;DHT22;156;48.738;9.228;2023-04-07T04:11:04;6.40;1.00
336;DHT22;156;48.738;9.228;2023-04-07T04:13:30;6.40;1.00
336;DHT22;156;48.738;9.228;2023-04-07T04:15:57;6.40;1.00
336;DHT22;156;48.738;9.228;2023-04-07T04:18:24;6.50;1.00
336;DHT22;156;48.738;9.228;2023-04-07T04:20:52;6.40;1.00
336;DHT22;156;48.738;9.228;2023-04-07T04:23:20;6.50;1.00
336;DHT22;156;48.738;9.228;2023-04-07T04:25:46;6.50;1.00
336;DHT22;156;48.738;9.228;2023-04-07T04:28:13;6.50;1.00
336;DHT22;156;48.738;9.228;2023-04-07T04:30:40;6.50;1.00
336;DHT22;156;48.738;9.228;2023-04-07T04:33:07;6.50;1.00
336;DHT22;156;48.738;9.228;2023-04-07T04:35:34;6.50;1.00
336;DHT22;156;48.738;9.228;2023-04-07T04:38:02;6.50;1.00
336;DHT22;156;48.738;9.228;2023-04-07T04:40:29;6.50;1.00
336;DHT22;156;48.738;9.228;2023-04-07T04:42:56;6.50;1.00
336;DHT22;156;48.738;9.228;2023-04-07T04:45:23;6.50;1.00
336;DHT22;156;48.738;9.228;2023-04-07T04:47:50;6.50;1.00
336;DHT22;156;48.738;9.228;2023-04-07T04:50:17;6.50;1.00
336;DHT22;156;48.738;9.228;2023-04-07T04:52:44;6.50;1.00
336;DHT22;156;48.738;9.228;2023-04-07T04:55:12;6.50;1.00
336;DHT22;156;48.738;9.228;2023-04-07T04:57:39;6.50;1.00
336;DHT22;156;48.738;9.228;2023-04-07T05:00:07;6.50;1.00
336;DHT22;156;48.738;9.228;2023-04-07T05:02:35;6.50;1.00
336;DHT22;156;48.738;9.228;2023-04-07T05:05:02;6.50;1.00
336;DHT22;156;48.738;9.228;2023-04-07T05:07:29;6.50;1.00
336;DHT22;156;48.738;9.228;2023-04-07T05:09:56;6.50;1.00
336;DHT22;156;48.738;9.228;2023-04-07T05:12:24;6.50;1.00
336;DHT22;156;48.738;9.228;2023-04-07T05:14:51;6.50;1.00
336;DHT22;156;48.738;9.228;2023-04-07T05:17:18;6.50;1.00
336;DHT22;156;48.738;9.228;2023-04-07T05:19:45;6.50;1.00
336;DHT22;156;48.738;9.228;2023-04-07T05:22:12;6.50;1.00
336;DHT22;156;48.738;9.228;2023-04-07T05:24:39;6.60;1.00
336;DHT22;156;48.738;9.228;2023-04-07T05:27:06;6.60;1.00
336;DHT22;156;48.738;9.228;2023-04-07T05:29:34;6.60;1.00
336;DHT22;156;48.738;9.228;2023-04-07T05:32:01;6.60;1.00
336;DHT22;156;48.738;9.228;2023-04-07T05:34:28;6.70;1.00
336;DHT22;156;48.738;9.228;2023-04-07T05:36:55;6.70;1.00
336;DHT22;156;48.738;9.228;2023-04-07T05:39:22;6.60;1.00
336;DHT22;156;48.738;9.228;2023-04-07T05:41:48;6.60;1.00
336;DHT22;156;48.738;9.228;2023-04-07T05:44:15;6.60;1.00
336;DHT22;156;48.738;9.228;2023-04-07T05:46:44;6.60;1.00
336;DHT22;156;48.738;9.228;2023-04-07T05:49:10;6.70;1.00
336;DHT22;156;48.738;9.228;2023-04-07T05:51:37;6.70;1.00
336;DHT22;156;48.738;9.228;2023-04-07T05:54:04;6.60;1.00
336;DHT22;156;48.738;9.228;2023-04-07T05:56:31;6.70;1.00
336;DHT22;156;48.738;9.228;2023-04-07T05:58:58;6.70;1.00
336;DHT22;156;48.738;9.228;2023-04-07T06:01:26;6.70;1.00
336;DHT22;156;48.738;9.228;2023-04-07T06:03:54;6.80;1.00
336;DHT22;156;48.738;9.228;2023-04-07T06:06:23;6.80;1.00
336;DHT22;156;48.738;9.228;2023-04-07T06:08:50;6.80;1.00
336;DHT22;156;48.738;9.228;2023-04-07T06:11:17;6.80;1.00
336;DHT22;156;48.738;9.228;2023-04-07T06:13:45;6.90;1.00
336;DHT22;156;48.738;9.228;2023-04-07T06:16:12;6.90;1.00
336;DHT22;156;48.738;9.228;2023-04-07T06:18:39;6.90;1.00
336;DHT22;156;48.738;9.228;2023-04-07T06:21:08;6.90;1.00
336;DHT22;156;48.738;9.228;2023-04-07T06:23:34;6.80;1.00
336;DHT22;156;48.738;9.228;2023-04-07T06:26:01;6.80;1.00
336;DHT22;156;48.738;9.228;2023-04-07T06:28:28;6.80;1.00
336;DHT22;156;48.738;9.228;2023-04-07T06:30:55;6.80;1.00
336;DHT22;156;48.738;9.228;2023-04-07T06:33:22;6.90;1.00
336;DHT22;156;48.738;9.228;2023-04-07T06:35:50;6.90;1.00
336;DHT22;156;48.738;9.228;2023-04-07T06:38:18;7.00;1.00
336;DHT22;156;48.738;9.228;2023-04-07T06:40:45;7.00;1.00
336;DHT22;156;48.738;9.228;2023-04-07T06:43:12;7.00;1.00
336;DHT22;156;48.738;9.228;2023-04-07T06:45:39;7.00;1.00
336;DHT22;156;48.738;9.228;2023-04-07T06:48:06;7.00;1.00
336;DHT22;156;48.738;9.228;2023-04-07T06:50:35;7.10;1.00
336;DHT22;156;48.738;9.228;2023-04-07T06:53:02;7.00;1.00
336;DHT22;156;48.738;9.228;2023-04-07T06:55:31;7.00;1.00
336;DHT22;156;48.738;9.228;2023-04-07T06:57:58;7.00;1.00
336;DHT22;156;48.738;9.228;2023-04-07T07:00:25;7.10;1.00
336;DHT22;156;48.738;9.228;2023-04-07T07:02:54;7.00;1.00
336;DHT22;156;48.738;9.228;2023-04-07T07:05:21;7.10;1.00
336;DHT22;156;48.738;9.228;2023-04-07T07:07:49;7.30;1.00
336;DHT22;156;48.738;9.228;2023-04-07T07:10:15;7.40;1.00
336;DHT22;156;48.738;9.228;2023-04-07T07:12:44;7.50;1.00
336;DHT22;156;48.738;9.228;2023-04-07T07:15:11;7.60;1.00
336;DHT22;156;48.738;9.228;2023-04-07T07:17:37;7.70;1.00
336;DHT22;156;48.738;9.228;2023-04-07T07:20:05;7.80;1.00
336;DHT22;156;48.738;9.228;2023-04-07T07:22:33;7.80;1.00
336;DHT22;156;48.738;9.228;2023-04-07T07:25:00;7.90;1.00
336;DHT22;156;48.738;9.228;2023-04-07T07:27:27;8.00;1.00
336;DHT22;156;48.738;9.228;2023-04-07T07:29:56;8.00;1.00
336;DHT22;156;48.738;9.228;2023-04-07T07:32:23;8.00;1.00
336;DHT22;156;48.738;9.228;2023-04-07T07:34:50;8.00;1.00
336;DHT22;156;48.738;9.228;2023-04-07T07:37:16;8.10;1.00
336;DHT22;156;48.738;9.228;2023-04-07T07:39:43;8.10;1.00
336;DHT22;156;48.738;9.228;2023-04-07T07:42:10;8.10;1.00
336;DHT22;156;48.738;9.228;2023-04-07T07:44:37;8.10;1.00
336;DHT22;156;48.738;9.228;2023-04-07T07:47:05;8.30;1.00
336;DHT22;156;48.738;9.228;2023-04-07T07:49:32;8.40;1.00
336;DHT22;156;48.738;9.228;2023-04-07T07:51:59;8.40;1.00
336;DHT22;156;48.738;9.228;2023-04-07T07:54:27;8.30;1.00
336;DHT22;156;48.738;9.228;2023-04-07T07:56:54;8.20;1.00
336;DHT22;156;48.738;9.228;2023-04-07T07:59:20;8.20;1.00
336;DHT22;156;48.738;9.228;2023-04-07T08:01:47;8.20;1.00
336;DHT22;156;48.738;9.228;2023-04-07T08:04:16;8.20;1.00
336;DHT22;156;48.738;9.228;2023-04-07T08:06:43;8.20;1.00
336;DHT22;156;48.738;9.228;2023-04-07T08:09:10;8.20;1.00
336;DHT22;156;48.738;9.228;2023-04-07T08:11:37;8.20;1.00
336;DHT22;156;48.738;9.228;2023-04-07T08:14:04;8.30;1.00
336;DHT22;156;48.738;9.228;2023-04-07T08:16:30;8.40;1.00
336;DHT22;156;48.738;9.228;2023-04-07T08:18:57;8.40;1.00
336;DHT22;156;48.738;9.228;2023-04-07T08:21:26;8.30;1.00
336;DHT22;156;48.738;9.228;2023-04-07T08:23:53;8.50;1.00
336;DHT22;156;48.738;9.228;2023-04-07T08:26:20;8.50;1.00
336;DHT22;156;48.738;9.228;2023-04-07T08:28:48;8.70;1.00
336;DHT22;156;48.738;9.228;2023-04-07T08:31:16;8.80;1.00
336;DHT22;156;48.738;9.228;2023-04-07T08:33:43;9.10;1.00
336;DHT22;156;48.738;9.228;2023-04-07T08:36:10;9.30;1.00
336;DHT22;156;48.738;9.228;2023-04-07T08:38:38;9.60;1.00
336;DHT22;156;48.738;9.228;2023-04-07T08:41:09;9.90;1.00
336;DHT22;156;48.738;9.228;2023-04-07T08:43:38;10.20;1.00
336;DHT22;156;48.738;9.228;2023-04-07T08:46:09;10.40;1.00
336;DHT22;156;48.738;9.228;2023-04-07T08:48:37;10.20;1.00
336;DHT22;156;48.738;9.228;2023-04-07T08:51:06;10.00;1.00
336;DHT22;156;48.738;9.228;2023-04-07T08:53:39;10.00;1.00
336;DHT22;156;48.738;9.228;2023-04-07T08:56:08;9.90;1.00
336;DHT22;156;48.738;9.228;2023-04-07T08:58:37;9.90;1.00
336;DHT22;156;48.738;9.228;2023-04-07T09:01:05;10.10;1.00
336;DHT22;156;48.738;9.228;2023-04-07T09:03:32;10.10;1.00
336;DHT22;156;48.738;9.228;2023-04-07T09:06:00;10.00;1.00
336;DHT22;156;48.738;9.228;2023-04-07T09:08:27;10.20;1.00
336;DHT22;156;48.738;9.228;2023-04-07T09:10:56;10.30;1.00
336;DHT22;156;48.738;9.228;2023-04-07T09:13:23;10.40;1.00
336;DHT22;156;48.738;9.228;2023-04-07T09:15:50;10.50;1.00
336;DHT22;156;48.738;9.228;2023-04-07T09:18:18;10.60;1.00
336;DHT22;156;48.738;9.228;2023-04-07T09:20:59;10.40;1.00
336;DHT22;156;48.738;9.228;2023-04-07T09:23:28;10.50;1.00
336;DHT22;156;48.738;9.228;2023-04-07T09:25:57;10.40;1.00
336;DHT22;156;48.738;9.228;2023-04-07T09:28:38;10.40;1.00
336;DHT22;156;48.738;9.228;2023-04-07T09:31:06;10.40;1.00
336;DHT22;156;48.738;9.228;2023-04-07T09:33:33;10.30;1.00
336;DHT22;156;48.738;9.228;2023-04-07T09:36:01;10.40;1.00
336;DHT22;156;48.738;9.228;2023-04-07T09:38:32;10.60;1.00
336;DHT22;156;48.738;9.228;2023-04-07T09:41:08;10.90;1.00
336;DHT22;156;48.738;9.228;2023-04-07T09:43:37;10.80;1.00
336;DHT22;156;48.738;9.228;2023-04-07T09:46:11;10.70;1.00
336;DHT22;156;48.738;9.228;2023-04-07T09:48:39;10.80;1.00
336;DHT22;156;48.738;9.228;2023-04-07T09:51:08;10.80;1.00
336;DHT22;156;48.738;9.228;2023-04-07T09:53:43;10.80;1.00
336;DHT22;156;48.738;9.228;2023-04-07T09:56:12;11.00;1.00
336;DHT22;156;48.738;9.228;2023-04-07T09:58:41;11.10;1.00
336;DHT22;156;48.738;9.228;2023-04-07T10:01:09;11.20;1.00
336;DHT22;156;48.738;9.228;2023-04-07T10:03:36;11.10;1.00
336;DHT22;156;48.738;9.228;2023-04-07T10:06:05;11.20;1.00
336;DHT22;156;48.738;9.228;2023-04-07T10:08:35;11.00;1.00
336;DHT22;156;48.738;9.228;2023-04-07T10:11:03;11.20;1.00
336;DHT22;156;48.738;9.228;2023-04-07T10:13:32;11.40;1.00
336;DHT22;156;48.738;9.228;2023-04-07T10:16:02;11.20;1.00
336;DHT22;156;48.738;9.228;2023-04-07T10:18:30;11.30;1.00
336;DHT22;156;48.738;9.228;2023-04-07T10:21:00;11.40;1.00
336;DHT22;156;48.738;9.228;2023-04-07T10:23:33;11.40;1.00
336;DHT22;156;48.738;9.228;2023-04-07T10:26:05;11.20;1.00
336;DHT22;156;48.738;9.228;2023-04-07T10:28:37;11.10;1.00
336;DHT22;156;48.738;9.228;2023-04-07T10:31:06;11.30;1.00
336;DHT22;156;48.738;9.228;2023-04-07T10:33:47;11.20;1.00
336;DHT22;156;48.738;9.228;2023-04-07T10:36:15;11.10;1.00
336;DHT22;156;48.738;9.228;2023-04-07T10:41:49;10.60;1.00
336;DHT22;156;48.738;9.228;2023-04-07T10:44:46;10.50;1.00
336;DHT22;156;48.738;9.228;2023-04-07T10:47:14;10.50;1.00
336;DHT22;156;48.738;9.228;2023-04-07T10:50:16;10.60;1.00
336;DHT22;156;48.738;9.228;2023-04-07T10:52:44;10.70;1.00
336;DHT22;156;48.738;9.228;2023-04-07T10:55:36;10.60;1.00
336;DHT22;156;48.738;9.228;2023-04-07T10:58:21;10.60;1.00
336;DHT22;156;48.738;9.228;2023-04-07T11:01:20;10.60;1.00
336;DHT22;156;48.738;9.228;2023-04-07T11:03:55;10.80;1.00
336;DHT22;156;48.738;9.228;2023-04-07T11:06:22;11.00;1.00
336;DHT22;156;48.738;9.228;2023-04-07T11:08:50;11.20;1.00
336;DHT22;156;48.738;9.228;2023-04-07T11:11:34;11.30;1.00
336;DHT22;156;48.738;9.228;2023-04-07T11:14:01;11.30;1.00
336;DHT22;156;48.738;9.228;2023-04-07T11:16:36;11.30;1.00
336;DHT22;156;48.738;9.228;2023-04-07T11:19:04;11.60;1.00
336;DHT22;156;48.738;9.228;2023-04-07T11:21:31;11.80;1.00
336;DHT22;156;48.738;9.228;2023-04-07T11:23:58;12.10;1.00
336;DHT22;156;48.738;9.228;2023-04-07T11:26:25;12.40;1.00
336;DHT22;156;48.738;9.228;2023-04-07T11:28:54;12.60;1.00
336;DHT22;156;48.738;9.228;2023-04-07T11:31:23;12.80;1.00
336;DHT22;156;48.738;9.228;2023-04-07T11:33:55;12.80;1.00
336;DHT22;156;48.738;9.228;2023-04-07T11:36:28;12.90;1.00
336;DHT22;156;48.738;9.228;2023-04-07T11:38:55;12.90;1.00
336;DHT22;156;48.738;9.228;2023-04-07T11:41:24;12.80;1.00
336;DHT22;156;48.738;9.228;2023-04-07T11:44:05;12.50;1.00
336;DHT22;156;48.738;9.228;2023-04-07T11:46:33;12.30;1.00
336;DHT22;156;48.738;9.228;2023-04-07T11:49:12;12.10;1.00
336;DHT22;156;48.738;9.228;2023-04-07T11:51:41;12.00;1.00
336;DHT22;156;48.738;9.228;2023-04-07T11:54:08;11.70;1.00
336;DHT22;156;48.738;9.228;2023-04-07T11:56:43;11.40;1.00
336;DHT22;156;48.738;9.228;2023-04-07T11:59:19;11.30;1.00
336;DHT22;156;48.738;9.228;2023-04-07T12:01:48;11.00;1.00
336;DHT22;156;48.738;9.228;2023-04-07T12:04:17;10.90;1.00
336;DHT22;156;48.738;9.228;2023-04-07T12:06:45;10.80;1.00
336;DHT22;156;48.738;9.228;2023-04-07T12:09:27;10.30;1.00
336;DHT22;156;48.738;9.228;2023-04-07T12:11:54;9.90;1.00
336;DHT22;156;48.738;9.228;2023-04-07T12:14:22;9.80;1.00
336;DHT22;156;48.738;9.228;2023-04-07T12:16:49;9.40;1.00
336;DHT22;156;48.738;9.228;2023-04-07T12:19:18;8.50;1.00
336;DHT22;156;48.738;9.228;2023-04-07T12:21:45;8.00;1.00
336;DHT22;156;48.738;9.228;2023-04-07T12:24:12;7.90;1.00
336;DHT22;156;48.738;9.228;2023-04-07T12:26:39;7.80;1.00
336;DHT22;156;48.738;9.228;2023-04-07T12:29:06;7.80;20.50
336;DHT22;156;48.738;9.228;2023-04-07T12:31:33;7.80;52.50
336;DHT22;156;48.738;9.228;2023-04-07T12:34:01;7.70;48.40
336;DHT22;156;48.738;9.228;2023-04-07T12:36:29;7.80;70.00
336;DHT22;156;48.738;9.228;2023-04-07T12:38:56;7.80;82.50
336;DHT22;156;48.738;9.228;2023-04-07T12:41:24;7.70;92.60
336;DHT22;156;48.738;9.228;2023-04-07T12:43:51;7.70;97.40
336;DHT22;156;48.738;9.228;2023-04-07T12:46:18;7.70;99.90
336;DHT22;156;48.738;9.228;2023-04-07T12:48:45;7.70;99.90
336;DHT22;156;48.738;9.228;2023-04-07T12:51:14;7.80;99.90
336;DHT22;156;48.738;9.228;2023-04-07T12:53:42;7.90;99.90
336;DHT22;156;48.738;9.228;2023-04-07T12:56:10;7.90;99.90
336;DHT22;156;48.738;9.228;2023-04-07T12:58:37;8.10;90.50
336;DHT22;156;48.738;9.228;2023-04-07T13:01:04;8.10;91.20
336;DHT22;156;48.738;9.228;2023-04-07T13:03:32;8.20;57.70
336;DHT22;156;48.738;9.228;2023-04-07T13:05:59;8.20;46.30
336;DHT22;156;48.738;9.228;2023-04-07T13:08:27;8.20;47.90
336;DHT22;156;48.738;9.228;2023-04-07T13:10:56;8.30;57.00
336;DHT22;156;48.738;9.228;2023-04-07T13:13:23;8.50;68.10
336;DHT22;156;48.738;9.228;2023-04-07T13:15:50;8.60;45.40
336;DHT22;156;48.738;9.228;2023-04-07T13:18:17;8.80;30.10
336;DHT22;156;48.738;9.228;2023-04-07T13:20:44;8.90;25.40
336;DHT22;156;48.738;9.228;2023-04-07T13:23:12;9.10;28.90
336;DHT22;156;48.738;9.228;2023-04-07T13:25:39;9.20;29.60
336;DHT22;156;48.738;9.228;2023-04-07T13:28:07;9.20;26.40
336;DHT22;156;48.738;9.228;2023-04-07T13:30:35;9.20;25.90
336;DHT22;156;48.738;9.228;2023-04-07T13:33:01;9.30;26.00
336;DHT22;156;48.738;9.228;2023-04-07T13:35:28;9.40;22.00
336;DHT22;156;48.738;9.228;2023-04-07T13:38:00;9.50;10.20
336;DHT22;156;48.738;9.228;2023-04-07T13:40:27;9.60;5.00
336;DHT22;156;48.738;9.228;2023-04-07T13:42:54;9.60;6.40
336;DHT22;156;48.738;9.228;2023-04-07T13:45:22;9.60;9.50
336;DHT22;156;48.738;9.228;2023-04-07T13:47:49;9.50;14.90
336;DHT22;156;48.738;9.228;2023-04-07T13:50:16;9.40;23.00
336;DHT22;156;48.738;9.228;2023-04-07T13:52:43;9.30;14.10
336;DHT22;156;48.738;9.228;2023-04-07T13:55:11;9.20;4.60
336;DHT22;156;48.738;9.228;2023-04-07T13:57:37;9.20;7.70
336;DHT22;156;48.738;9.228;2023-04-07T14:00:06;9.30;9.60
336;DHT22;156;48.738;9.228;2023-04-07T14:02:34;9.30;9.70
336;DHT22;156;48.738;9.228;2023-04-07T14:05:01;9.30;4.70
336;DHT22;156;48.738;9.228;2023-04-07T14:07:28;9.40;1.30
336;DHT22;156;48.738;9.228;2023-04-07T14:09:55;9.40;1.00
336;DHT22;156;48.738;9.228;2023-04-07T14:12:23;9.30;1.00
336;DHT22;156;48.738;9.228;2023-04-07T14:14:50;9.40;1.00
336;DHT22;156;48.738;9.228;2023-04-07T14:17:17;9.50;1.00
336;DHT22;156;48.738;9.228;2023-04-07T14:19:46;9.50;1.00
336;DHT22;156;48.738;9.228;2023-04-07T14:22:13;9.50;1.00
336;DHT22;156;48.738;9.228;2023-04-07T14:24:40;9.60;1.00
336;DHT22;156;48.738;9.228;2023-04-07T14:27:07;9.70;1.00
336;DHT22;156;48.738;9.228;2023-04-07T14:29:34;9.80;1.00
336;DHT22;156;48.738;9.228;2023-04-07T14:32:01;10.00;1.00
336;DHT22;156;48.738;9.228;2023-04-07T14:34:28;10.10;1.00
336;DHT22;156;48.738;9.228;2023-04-07T14:36:56;10.20;1.00
336;DHT22;156;48.738;9.228;2023-04-07T14:39:24;10.20;1.00
336;DHT22;156;48.738;9.228;2023-04-07T14:41:51;10.40;1.00
336;DHT22;156;48.738;9.228;2023-04-07T14:44:18;10.30;1.00
336;DHT22;156;48.738;9.228;2023-04-07T14:46:45;10.40;1.00
336;DHT22;156;48.738;9.228;2023-04-07T14:49:13;10.40;1.00
336;DHT22;156;48.738;9.228;2023-04-07T14:51:40;10.30;1.00
336;DHT22;156;48.738;9.228;2023-04-07T14:54:08;10.30;1.00
336;DHT22;156;48.738;9.228;2023-04-07T14:56:35;10.40;1.00
336;DHT22;156;48.738;9.228;2023-04-07T14:59:02;10.50;1.00
336;DHT22;156;48.738;9.228;2023-04-07T15:01:29;10.40;1.00
336;DHT22;156;48.738;9.228;2023-04-07T15:03:56;10.50;1.00
336;DHT22;156;48.738;9.228;2023-04-07T15:06:25;10.40;1.00
336;DHT22;156;48.738;9.228;2023-04-07T15:08:52;10.40;1.00
336;DHT22;156;48.738;9.228;2023-04-07T15:11:20;10.50;1.00
336;DHT22;156;48.738;9.228;2023-04-07T15:13:47;10.40;1.00
336;DHT22;156;48.738;9.228;2023-04-07T15:16:14;10.40;1.00
336;DHT22;156;48.738;9.228;2023-04-07T15:18:42;10.40;1.00
336;DHT22;156;48.738;9.228;2023-04-07T15:21:11;10.50;1.00
336;DHT22;156;48.738;9.228;2023-04-07T15:23:38;10.40;1.00
336;DHT22;156;48.738;9.228;2023-04-07T15:26:06;10.40;1.00
336;DHT22;156;48.738;9.228;2023-04-07T15:28:35;10.30;1.00
336;DHT22;156;48.738;9.228;2023-04-07T15:31:02;10.30;1.00
336;DHT22;156;48.738;9.228;2023-04-07T15:33:33;10.30;1.00
336;DHT22;156;48.738;9.228;2023-04-07T15:36:00;10.40;1.00
336;DHT22;156;48.738;9.228;2023-04-07T15:38:27;10.40;1.00
336;DHT22;156;48.738;9.228;2023-04-07T15:40:54;10.40;1.00
336;DHT22;156;48.738;9.228;2023-04-07T15:43:21;10.40;1.00
336;DHT22;156;48.738;9.228;2023-04-07T15:45:50;10.40;1.00
336;DHT22;156;48.738;9.228;2023-04-07T15:48:17;10.40;1.00
336;DHT22;156;48.738;9.228;2023-04-07T15:50:44;10.40;1.00
336;DHT22;156;48.738;9.228;2023-04-07T15:53:12;10.40;1.00
336;DHT22;156;48.738;9.228;2023-04-07T15:55:38;10.50;1.00
336;DHT22;156;48.738;9.228;2023-04-07T15:58:06;10.60;1.00
336;DHT22;156;48.738;9.228;2023-04-07T16:00:37;10.60;1.00
336;DHT22;156;48.738;9.228;2023-04-07T16:03:06;10.60;1.00
336;DHT22;156;48.738;9.228;2023-04-07T16:05:33;10.70;1.00
336;DHT22;156;48.738;9.228;2023-04-07T16:08:00;10.80;1.00
336;DHT22;156;48.738;9.228;2023-04-07T16:10:27;10.90;1.00
336;DHT22;156;48.738;9.228;2023-04-07T16:12:53;11.00;1.00
336;DHT22;156;48.738;9.228;2023-04-07T16:15:21;11.30;1.00
336;DHT22;156;48.738;9.228;2023-04-07T16:17:48;11.30;1.00
336;DHT22;156;48.738;9.228;2023-04-07T16:20:16;11.40;1.00
336;DHT22;156;48.738;9.228;2023-04-07T16:22:44;11.50;1.00
336;DHT22;156;48.738;9.228;2023-04-07T16:25:13;11.40;1.00
336;DHT22;156;48.738;9.228;2023-04-07T16:27:40;11.40;1.00
336;DHT22;156;48.738;9.228;2023-04-07T16:30:09;11.50;1.00
336;DHT22;156;48.738;9.228;2023-04-07T16:32:38;11.60;1.00
336;DHT22;156;48.738;9.228;2023-04-07T16:35:06;11.70;1.00
336;DHT22;156;48.738;9.228;2023-04-07T16:37:34;11.50;1.00
336;DHT22;156;48.738;9.228;2023-04-07T16:40:01;11.30;1.00
336;DHT22;156;48.738;9.228;2023-04-07T16:44:56;10.90;1.00
336;DHT22;156;48.738;9.228;2023-04-07T16:47:23;10.90;1.00
336;DHT22;156;48.738;9.228;2023-04-07T16:49:50;10.80;1.00
336;DHT22;156;48.738;9.228;2023-04-07T16:52:17;10.70;1.00
336;DHT22;156;48.738;9.228;2023-04-07T16:54:45;10.60;1.00
336;DHT22;156;48.738;9.228;2023-04-07T16:57:12;10.60;1.00
336;DHT22;156;48.738;9.228;2023-04-07T16:59:39;10.60;1.00
336;DHT22;156;48.738;9.228;2023-04-07T17:02:06;10.80;1.00
336;DHT22;156;48.738;9.228;2023-04-07T17:04:35;10.70;1.00
336;DHT22;156;48.738;9.228;2023-04-07T17:07:02;10.50;1.00
336;DHT22;156;48.738;9.228;2023-04-07T17:09:29;10.20;1.00
336;DHT22;156;48.738;9.228;2023-04-07T17:11:58;9.70;1.00